sensor_id;sensor_type;location;lat;lon;timestamp;temperature;humidity
71297;SHT31;59082;50.658;4.608;2022-10-29T04:18:24;15.25;99.99
71297;SHT31;59082;50.658;4.608;2022-10-29T04:20:50;15.22;99.99
71297;SHT31;59082;50.658;4.608;2022-10-29T04:23:15;15.21;99.99
71297;SHT31;59082;50.658;4.608;2022-10-29T04:25:41;15.16;99.99
71297;SHT31;59082;50.658;4.608;2022-10-29T04:28:07;15.19;99.99
71297;SHT31;59082;50.658;4.608;2022-10-29T04:30:32;15.16;99.99
71297;SHT31;59082;50.658;4.608;2022-10-29T04:32:58;15.18;99.99
71297;SHT31;59082;50.658;4.608;2022-10-29T04:35:25;15.16;99.99
71297;SHT31;59082;50.658;4.608;2022-10-29T04:37:51;15.16;99.99
71297;SHT31;59082;50.658;4.608;2022-10-29T04:40:22;15.18;99.99
71297;SHT31;59082;50.658;4.608;2022-10-29T04:42:51;15.21;99.99
71297;SHT31;59082;50.658;4.608;2022-10-29T04:45:17;15.24;99.99
71297;SHT31;59082;50.658;4.608;2022-10-29T04:47:43;15.25;99.99
71297;SHT31;59082;50.658;4.608;2022-10-29T04:50:08;15.22;99.99
71297;SHT31;59082;50.658;4.608;2022-10-29T04:52:34;15.25;99.99
71297;SHT31;59082;50.658;4.608;2022-10-29T04:54:59;15.28;99.99
71297;SHT31;59082;50.658;4.608;2022-10-29T04:57:25;15.19;99.99
71297;SHT31;59082;50.658;4.608;2022-10-29T04:59:50;15.18;99.99
71297;SHT31;59082;50.658;4.608;2022-10-29T05:02:16;15.16;99.99
71297;SHT31;59082;50.658;4.608;2022-10-29T05:04:41;15.08;99.99
71297;SHT31;59082;50.658;4.608;2022-10-29T05:07:07;14.98;99.99
71297;SHT31;59082;50.658;4.608;2022-10-29T05:09:32;14.91;99.99
71297;SHT31;59082;50.658;4.608;2022-10-29T05:11:58;14.87;99.99
71297;SHT31;59082;50.658;4.608;2022-10-29T05:14:26;14.78;99.99
71297;SHT31;59082;50.658;4.608;2022-10-29T05:16:52;14.74;99.99
71297;SHT31;59082;50.658;4.608;2022-10-29T05:19:17;14.64;99.99
71297;SHT31;59082;50.658;4.608;2022-10-29T05:21:43;14.57;99.99
71297;SHT31;59082;50.658;4.608;2022-10-29T05:24:08;14.53;99.99
71297;SHT31;59082;50.658;4.608;2022-10-29T05:26:34;14.47;99.99
71297;SHT31;59082;50.658;4.608;2022-10-29T05:28:59;14.40;99.99
71297;SHT31;59082;50.658;4.608;2022-10-29T05:31:25;14.32;99.99
71297;SHT31;59082;50.658;4.608;2022-10-29T05:33:50;14.23;99.99
71297;SHT31;59082;50.658;4.608;2022-10-29T05:36:16;14.22;99.99
71297;SHT31;59082;50.658;4.608;2022-10-29T05:38:41;14.20;99.99
71297;SHT31;59082;50.658;4.608;2022-10-29T05:41:07;14.15;99.99
71297;SHT31;59082;50.658;4.608;2022-10-29T05:43:32;14.12;99.99
71297;SHT31;59082;50.658;4.608;2022-10-29T05:46:01;14.08;99.99
71297;SHT31;59082;50.658;4.608;2022-10-29T05:48:27;14.05;99.99
71297;SHT31;59082;50.658;4.608;2022-10-29T05:50:53;14.00;99.99
71297;SHT31;59082;50.658;4.608;2022-10-29T05:53:18;14.00;99.99
71297;SHT31;59082;50.658;4.608;2022-10-29T05:55:44;13.95;99.99
71297;SHT31;59082;50.658;4.608;2022-10-29T05:58:11;13.92;99.99
71297;SHT31;59082;50.658;4.608;2022-10-29T06:00:39;13.94;99.99
71297;SHT31;59082;50.658;4.608;2022-10-29T06:03:13;13.92;99.99
71297;SHT31;59082;50.658;4.608;2022-10-29T06:05:40;13.88;99.99
71297;SHT31;59082;50.658;4.608;2022-10-29T06:08:05;13.88;99.99
71297;SHT31;59082;50.658;4.608;2022-10-29T06:10:31;13.88;99.99
71297;SHT31;59082;50.658;4.608;2022-10-29T06:12:57;13.92;99.99
71297;SHT31;59082;50.658;4.608;2022-10-29T06:15:22;14.00;99.99
71297;SHT31;59082;50.658;4.608;2022-10-29T06:17:48;14.05;99.99
71297;SHT31;59082;50.658;4.608;2022-10-29T06:20:18;14.08;99.99
71297;SHT31;59082;50.658;4.608;2022-10-29T06:22:44;14.19;99.99
71297;SHT31;59082;50.658;4.608;2022-10-29T06:25:10;14.26;99.99
71297;SHT31;59082;50.658;4.608;2022-10-29T06:27:35;14.37;99.99
71297;SHT31;59082;50.658;4.608;2022-10-29T06:30:02;14.49;99.99
71297;SHT31;59082;50.658;4.608;2022-10-29T06:32:28;14.56;99.99
71297;SHT31;59082;50.658;4.608;2022-10-29T06:34:54;14.60;99.99
71297;SHT31;59082;50.658;4.608;2022-10-29T06:37:19;14.67;99.99
71297;SHT31;59082;50.658;4.608;2022-10-29T06:39:46;14.66;99.99
71297;SHT31;59082;50.658;4.608;2022-10-29T06:42:11;14.70;99.99
71297;SHT31;59082;50.658;4.608;2022-10-29T06:44:38;14.74;99.99
71297;SHT31;59082;50.658;4.608;2022-10-29T06:47:03;14.73;99.99
71297;SHT31;59082;50.658;4.608;2022-10-29T06:49:29;14.74;99.99
71297;SHT31;59082;50.658;4.608;2022-10-29T06:51:55;14.71;99.99
71297;SHT31;59082;50.658;4.608;2022-10-29T06:54:20;14.71;99.99
71297;SHT31;59082;50.658;4.608;2022-10-29T06:56:46;14.71;99.99
71297;SHT31;59082;50.658;4.608;2022-10-29T06:59:11;14.73;99.99
71297;SHT31;59082;50.658;4.608;2022-10-29T07:01:37;14.81;99.99
71297;SHT31;59082;50.658;4.608;2022-10-29T07:04:04;14.87;99.99
71297;SHT31;59082;50.658;4.608;2022-10-29T07:06:32;14.87;99.99
71297;SHT31;59082;50.658;4.608;2022-10-29T07:09:00;14.88;99.99
71297;SHT31;59082;50.658;4.608;2022-10-29T07:11:26;14.94;99.99
71297;SHT31;59082;50.658;4.608;2022-10-29T07:13:51;14.95;99.99
71297;SHT31;59082;50.658;4.608;2022-10-29T07:16:17;14.98;99.99
71297;SHT31;59082;50.658;4.608;2022-10-29T07:18:43;14.99;99.99
71297;SHT31;59082;50.658;4.608;2022-10-29T07:21:08;15.05;99.99
71297;SHT31;59082;50.658;4.608;2022-10-29T07:23:34;15.12;99.99
71297;SHT31;59082;50.658;4.608;2022-10-29T07:25:59;15.21;99.99
71297;SHT31;59082;50.658;4.608;2022-10-29T07:28:25;15.31;99.99
71297;SHT31;59082;50.658;4.608;2022-10-29T07:30:51;15.32;99.99
71297;SHT31;59082;50.658;4.608;2022-10-29T07:33:17;15.40;99.99
71297;SHT31;59082;50.658;4.608;2022-10-29T07:35:43;15.52;99.99
71297;SHT31;59082;50.658;4.608;2022-10-29T07:38:10;15.59;99.99
71297;SHT31;59082;50.658;4.608;2022-10-29T07:40:45;15.73;99.99
71297;SHT31;59082;50.658;4.608;2022-10-29T07:43:11;15.96;99.99
71297;SHT31;59082;50.658;4.608;2022-10-29T07:45:36;16.15;99.99
71297;SHT31;59082;50.658;4.608;2022-10-29T07:48:05;16.31;99.99
71297;SHT31;59082;50.658;4.608;2022-10-29T07:50:34;16.48;99.99
71297;SHT31;59082;50.658;4.608;2022-10-29T07:53:01;16.66;99.99
71297;SHT31;59082;50.658;4.608;2022-10-29T07:55:27;16.83;99.99
71297;SHT31;59082;50.658;4.608;2022-10-29T07:57:57;16.96;99.99
71297;SHT31;59082;50.658;4.608;2022-10-29T08:00:25;17.07;99.99
71297;SHT31;59082;50.658;4.608;2022-10-29T08:02:52;17.10;99.99
71297;SHT31;59082;50.658;4.608;2022-10-29T08:05:18;17.13;99.99
71297;SHT31;59082;50.658;4.608;2022-10-29T08:07:44;17.15;99.99
71297;SHT31;59082;50.658;4.608;2022-10-29T08:10:09;17.08;99.99
71297;SHT31;59082;50.658;4.608;2022-10-29T08:12:35;17.04;99.99
71297;SHT31;59082;50.658;4.608;2022-10-29T08:15:00;17.02;99.99
71297;SHT31;59082;50.658;4.608;2022-10-29T08:17:29;17.02;99.99
71297;SHT31;59082;50.658;4.608;2022-10-29T08:19:54;16.99;99.99
71297;SHT31;59082;50.658;4.608;2022-10-29T08:22:20;17.02;99.99
71297;SHT31;59082;50.658;4.608;2022-10-29T08:24:46;17.00;99.99
71297;SHT31;59082;50.658;4.608;2022-10-29T08:27:11;17.04;99.99
71297;SHT31;59082;50.658;4.608;2022-10-29T08:29:36;17.11;99.99
71297;SHT31;59082;50.658;4.608;2022-10-29T08:32:02;17.21;99.99
71297;SHT31;59082;50.658;4.608;2022-10-29T08:34:28;17.23;99.99
71297;SHT31;59082;50.658;4.608;2022-10-29T08:36:53;17.28;99.99
71297;SHT31;59082;50.658;4.608;2022-10-29T08:39:19;17.30;99.83
71297;SHT31;59082;50.658;4.608;2022-10-29T08:47:14;18.24;98.65
71297;SHT31;59082;50.658;4.608;2022-10-29T08:52:27;19.34;95.18
71297;SHT31;59082;50.658;4.608;2022-10-29T08:55:12;19.61;93.64
71297;SHT31;59082;50.658;4.608;2022-10-29T08:57:44;19.72;93.03
71297;SHT31;59082;50.658;4.608;2022-10-29T09:00:20;19.79;93.46
71297;SHT31;59082;50.658;4.608;2022-10-29T09:02:51;19.82;92.82
71297;SHT31;59082;50.658;4.608;2022-10-29T09:05:19;20.05;91.78
71297;SHT31;59082;50.658;4.608;2022-10-29T09:08:11;20.19;92.04
71297;SHT31;59082;50.658;4.608;2022-10-29T09:10:48;20.37;91.54
71297;SHT31;59082;50.658;4.608;2022-10-29T09:15:58;21.71;89.20
71297;SHT31;59082;50.658;4.608;2022-10-29T09:26:55;24.51;82.42
71297;SHT31;59082;50.658;4.608;2022-10-29T09:32:22;25.03;79.24
71297;SHT31;59082;50.658;4.608;2022-10-29T09:34:51;25.17;79.78
71297;SHT31;59082;50.658;4.608;2022-10-29T09:37:21;25.26;78.48
71297;SHT31;59082;50.658;4.608;2022-10-29T09:39:48;26.05;77.65
71297;SHT31;59082;50.658;4.608;2022-10-29T09:42:18;26.84;75.88
71297;SHT31;59082;50.658;4.608;2022-10-29T09:44:55;26.90;76.34
71297;SHT31;59082;50.658;4.608;2022-10-29T09:52:30;27.35;76.06
71297;SHT31;59082;50.658;4.608;2022-10-29T09:54:58;27.56;76.25
71297;SHT31;59082;50.658;4.608;2022-10-29T09:57:27;27.42;73.24
71297;SHT31;59082;50.658;4.608;2022-10-29T10:00:02;26.78;76.08
71297;SHT31;59082;50.658;4.608;2022-10-29T10:02:37;26.39;77.34
71297;SHT31;59082;50.658;4.608;2022-10-29T10:07:38;27.45;74.29
71297;SHT31;59082;50.658;4.608;2022-10-29T10:10:19;27.31;75.09
71297;SHT31;59082;50.658;4.608;2022-10-29T10:12:47;27.67;72.30
71297;SHT31;59082;50.658;4.608;2022-10-29T10:15:27;27.42;73.52
71297;SHT31;59082;50.658;4.608;2022-10-29T10:20:41;27.38;73.92
71297;SHT31;59082;50.658;4.608;2022-10-29T10:25:44;27.73;72.50
71297;SHT31;59082;50.658;4.608;2022-10-29T10:28:23;28.32;71.21
71297;SHT31;59082;50.658;4.608;2022-10-29T10:33:31;29.51;70.55
71297;SHT31;59082;50.658;4.608;2022-10-29T10:36:03;29.50;69.82
71297;SHT31;59082;50.658;4.608;2022-10-29T10:38:48;28.72;71.66
71297;SHT31;59082;50.658;4.608;2022-10-29T10:41:21;27.74;73.12
71297;SHT31;59082;50.658;4.608;2022-10-29T10:43:47;27.01;72.49
71297;SHT31;59082;50.658;4.608;2022-10-29T10:46:25;26.76;74.42
71297;SHT31;59082;50.658;4.608;2022-10-29T10:51:53;26.11;74.83
71297;SHT31;59082;50.658;4.608;2022-10-29T10:54:35;26.11;75.74
71297;SHT31;59082;50.658;4.608;2022-10-29T10:59:56;26.21;75.46
71297;SHT31;59082;50.658;4.608;2022-10-29T11:05:11;25.92;76.12
71297;SHT31;59082;50.658;4.608;2022-10-29T11:08:05;25.28;76.42
71297;SHT31;59082;50.658;4.608;2022-10-29T11:13:15;26.28;75.48
71297;SHT31;59082;50.658;4.608;2022-10-29T11:15:53;26.51;74.74
71297;SHT31;59082;50.658;4.608;2022-10-29T11:18:34;26.61;74.13
71297;SHT31;59082;50.658;4.608;2022-10-29T11:21:13;28.44;71.85
71297;SHT31;59082;50.658;4.608;2022-10-29T11:23:53;29.42;69.07
71297;SHT31;59082;50.658;4.608;2022-10-29T11:32:05;30.40;66.69
71297;SHT31;59082;50.658;4.608;2022-10-29T11:40:22;32.96;60.65
71297;SHT31;59082;50.658;4.608;2022-10-29T11:42:48;30.53;66.55
71297;SHT31;59082;50.658;4.608;2022-10-29T11:45:18;29.15;67.80
71297;SHT31;59082;50.658;4.608;2022-10-29T11:53:36;26.47;74.45
71297;SHT31;59082;50.658;4.608;2022-10-29T12:01:48;25.19;76.46
71297;SHT31;59082;50.658;4.608;2022-10-29T12:04:29;24.60;76.51
71297;SHT31;59082;50.658;4.608;2022-10-29T12:09:51;25.84;75.52
71297;SHT31;59082;50.658;4.608;2022-10-29T12:12:24;26.44;74.19
71297;SHT31;59082;50.658;4.608;2022-10-29T12:20:39;26.01;73.65
71297;SHT31;59082;50.658;4.608;2022-10-29T12:26:06;26.28;76.00
71297;SHT31;59082;50.658;4.608;2022-10-29T12:28:48;26.08;74.71
71297;SHT31;59082;50.658;4.608;2022-10-29T12:34:05;26.56;74.51
71297;SHT31;59082;50.658;4.608;2022-10-29T12:39:13;26.42;74.54
71297;SHT31;59082;50.658;4.608;2022-10-29T12:41:45;26.37;75.71
71297;SHT31;59082;50.658;4.608;2022-10-29T12:44:24;26.30;73.44
71297;SHT31;59082;50.658;4.608;2022-10-29T12:47:21;26.36;72.56
71297;SHT31;59082;50.658;4.608;2022-10-29T12:55:09;26.05;73.86
71297;SHT31;59082;50.658;4.608;2022-10-29T12:57:36;26.05;74.49
71297;SHT31;59082;50.658;4.608;2022-10-29T13:00:45;25.64;74.82
71297;SHT31;59082;50.658;4.608;2022-10-29T13:09:24;25.41;75.36
71297;SHT31;59082;50.658;4.608;2022-10-29T13:11:55;25.46;75.53
71297;SHT31;59082;50.658;4.608;2022-10-29T13:17:32;26.21;73.79
71297;SHT31;59082;50.658;4.608;2022-10-29T13:22:52;25.81;72.73
71297;SHT31;59082;50.658;4.608;2022-10-29T13:25:35;25.70;74.41
71297;SHT31;59082;50.658;4.608;2022-10-29T13:30:39;25.61;73.52
71297;SHT31;59082;50.658;4.608;2022-10-29T13:36:02;25.33;75.19
71297;SHT31;59082;50.658;4.608;2022-10-29T13:47:03;24.78;76.36
71297;SHT31;59082;50.658;4.608;2022-10-29T13:52:19;24.37;77.65
71297;SHT31;59082;50.658;4.608;2022-10-29T13:57:21;24.04;78.35
71297;SHT31;59082;50.658;4.608;2022-10-29T14:00:02;24.18;79.22
71297;SHT31;59082;50.658;4.608;2022-10-29T14:08:11;23.97;79.00
71297;SHT31;59082;50.658;4.608;2022-10-29T14:18:51;23.41;79.58
71297;SHT31;59082;50.658;4.608;2022-10-29T14:21:26;23.04;80.86
71297;SHT31;59082;50.658;4.608;2022-10-29T14:24:03;23.03;81.35
71297;SHT31;59082;50.658;4.608;2022-10-29T14:26:31;22.60;81.85
71297;SHT31;59082;50.658;4.608;2022-10-29T14:29:19;22.60;82.38
71297;SHT31;59082;50.658;4.608;2022-10-29T14:31:46;22.51;82.39
71297;SHT31;59082;50.658;4.608;2022-10-29T14:34:26;22.41;82.96
71297;SHT31;59082;50.658;4.608;2022-10-29T14:36:55;22.35;82.60
71297;SHT31;59082;50.658;4.608;2022-10-29T14:39:40;22.28;82.60
71297;SHT31;59082;50.658;4.608;2022-10-29T14:42:16;22.25;83.21
71297;SHT31;59082;50.658;4.608;2022-10-29T14:44:47;22.26;83.84
71297;SHT31;59082;50.658;4.608;2022-10-29T14:49:48;22.02;84.46
71297;SHT31;59082;50.658;4.608;2022-10-29T14:52:29;21.94;84.38
71297;SHT31;59082;50.658;4.608;2022-10-29T14:55:02;21.73;84.92
71297;SHT31;59082;50.658;4.608;2022-10-29T14:57:32;21.66;85.11
71297;SHT31;59082;50.658;4.608;2022-10-29T15:00:04;21.60;85.10
71297;SHT31;59082;50.658;4.608;2022-10-29T15:02:36;21.35;85.93
71297;SHT31;59082;50.658;4.608;2022-10-29T15:05:05;21.38;86.08
71297;SHT31;59082;50.658;4.608;2022-10-29T15:07:43;21.28;86.37
71297;SHT31;59082;50.658;4.608;2022-10-29T15:10:22;21.21;84.84
71297;SHT31;59082;50.658;4.608;2022-10-29T15:12:50;21.12;85.72
71297;SHT31;59082;50.658;4.608;2022-10-29T15:17:51;20.96;87.04
71297;SHT31;59082;50.658;4.608;2022-10-29T15:20:21;20.91;86.59
71297;SHT31;59082;50.658;4.608;2022-10-29T15:22:51;20.85;86.25
71297;SHT31;59082;50.658;4.608;2022-10-29T15:25:23;20.75;86.39
71297;SHT31;59082;50.658;4.608;2022-10-29T15:27:51;20.64;86.59
71297;SHT31;59082;50.658;4.608;2022-10-29T15:30:19;20.54;87.24
71297;SHT31;59082;50.658;4.608;2022-10-29T15:32:46;20.48;87.06
71297;SHT31;59082;50.658;4.608;2022-10-29T15:35:18;20.40;87.51
71297;SHT31;59082;50.658;4.608;2022-10-29T15:37:44;20.34;88.48
71297;SHT31;59082;50.658;4.608;2022-10-29T15:40:18;20.27;88.07
71297;SHT31;59082;50.658;4.608;2022-10-29T15:42:45;20.09;89.06
71297;SHT31;59082;50.658;4.608;2022-10-29T15:45:27;19.96;89.34
71297;SHT31;59082;50.658;4.608;2022-10-29T15:50:38;19.78;90.37
71297;SHT31;59082;50.658;4.608;2022-10-29T15:53:05;19.68;90.27
71297;SHT31;59082;50.658;4.608;2022-10-29T15:55:34;19.61;90.04
71297;SHT31;59082;50.658;4.608;2022-10-29T15:58:19;19.51;89.99
71297;SHT31;59082;50.658;4.608;2022-10-29T16:00:46;19.43;90.08
71297;SHT31;59082;50.658;4.608;2022-10-29T16:05:44;19.23;90.66
71297;SHT31;59082;50.658;4.608;2022-10-29T16:08:27;19.14;91.28
71297;SHT31;59082;50.658;4.608;2022-10-29T16:10:53;19.00;91.37
71297;SHT31;59082;50.658;4.608;2022-10-29T16:13:20;18.92;91.64
71297;SHT31;59082;50.658;4.608;2022-10-29T16:15:46;18.82;92.05
71297;SHT31;59082;50.658;4.608;2022-10-29T16:18:12;18.79;91.88
71297;SHT31;59082;50.658;4.608;2022-10-29T16:20:38;18.59;91.80
71297;SHT31;59082;50.658;4.608;2022-10-29T16:23:04;18.49;92.51
71297;SHT31;59082;50.658;4.608;2022-10-29T16:25:30;18.37;92.67
71297;SHT31;59082;50.658;4.608;2022-10-29T16:27:55;18.24;93.04
71297;SHT31;59082;50.658;4.608;2022-10-29T16:30:22;18.09;93.02
71297;SHT31;59082;50.658;4.608;2022-10-29T16:32:49;18.03;93.03
71297;SHT31;59082;50.658;4.608;2022-10-29T16:35:19;17.96;93.18
71297;SHT31;59082;50.658;4.608;2022-10-29T16:37:46;17.89;93.43
71297;SHT31;59082;50.658;4.608;2022-10-29T16:40:11;17.83;93.67
71297;SHT31;59082;50.658;4.608;2022-10-29T16:42:37;17.76;93.37
71297;SHT31;59082;50.658;4.608;2022-10-29T16:45:04;17.72;93.62
71297;SHT31;59082;50.658;4.608;2022-10-29T16:47:30;17.65;93.31
71297;SHT31;59082;50.658;4.608;2022-10-29T16:49:56;17.59;93.81
71297;SHT31;59082;50.658;4.608;2022-10-29T16:52:25;17.52;94.18
71297;SHT31;59082;50.658;4.608;2022-10-29T16:54:50;17.49;93.75
71297;SHT31;59082;50.658;4.608;2022-10-29T16:57:16;17.49;94.03
71297;SHT31;59082;50.658;4.608;2022-10-29T16:59:41;17.56;93.56
71297;SHT31;59082;50.658;4.608;2022-10-29T17:02:09;17.53;93.83
71297;SHT31;59082;50.658;4.608;2022-10-29T17:04:35;17.49;94.78
71297;SHT31;59082;50.658;4.608;2022-10-29T17:07:00;17.46;94.06
71297;SHT31;59082;50.658;4.608;2022-10-29T17:09:26;17.51;93.06
71297;SHT31;59082;50.658;4.608;2022-10-29T17:11:52;17.58;91.46
71297;SHT31;59082;50.658;4.608;2022-10-29T17:14:17;17.55;93.26
71297;SHT31;59082;50.658;4.608;2022-10-29T17:16:43;17.49;93.37
71297;SHT31;59082;50.658;4.608;2022-10-29T17:19:08;17.42;94.12
71297;SHT31;59082;50.658;4.608;2022-10-29T17:21:33;17.41;93.05
71297;SHT31;59082;50.658;4.608;2022-10-29T17:23:59;17.38;93.25
71297;SHT31;59082;50.658;4.608;2022-10-29T17:26:25;17.39;92.85
71297;SHT31;59082;50.658;4.608;2022-10-29T17:28:50;17.41;93.10
71297;SHT31;59082;50.658;4.608;2022-10-29T17:31:15;17.42;92.61
71297;SHT31;59082;50.658;4.608;2022-10-29T17:33:41;17.42;93.00
71297;SHT31;59082;50.658;4.608;2022-10-29T17:36:11;17.44;92.43
71297;SHT31;59082;50.658;4.608;2022-10-29T17:38:37;17.44;92.24
71297;SHT31;59082;50.658;4.608;2022-10-29T17:41:03;17.42;92.27
71297;SHT31;59082;50.658;4.608;2022-10-29T17:43:28;17.42;92.53
71297;SHT31;59082;50.658;4.608;2022-10-29T17:45:54;17.42;92.59
71297;SHT31;59082;50.658;4.608;2022-10-29T17:48:19;17.38;92.57
71297;SHT31;59082;50.658;4.608;2022-10-29T17:50:58;17.38;92.52
71297;SHT31;59082;50.658;4.608;2022-10-29T17:53:26;17.38;92.44
71297;SHT31;59082;50.658;4.608;2022-10-29T17:55:52;17.38;92.47
71297;SHT31;59082;50.658;4.608;2022-10-29T17:58:21;17.34;92.66
71297;SHT31;59082;50.658;4.608;2022-10-29T18:00:46;17.32;92.67
71297;SHT31;59082;50.658;4.608;2022-10-29T18:03:12;17.30;92.59
71297;SHT31;59082;50.658;4.608;2022-10-29T18:05:38;17.23;92.76
71297;SHT31;59082;50.658;4.608;2022-10-29T18:08:04;17.18;92.72
71297;SHT31;59082;50.658;4.608;2022-10-29T18:10:32;17.14;93.28
71297;SHT31;59082;50.658;4.608;2022-10-29T18:12:58;17.08;93.64
71297;SHT31;59082;50.658;4.608;2022-10-29T18:15:24;17.02;93.59
71297;SHT31;59082;50.658;4.608;2022-10-29T18:17:49;16.96;93.63
71297;SHT31;59082;50.658;4.608;2022-10-29T18:20:15;16.90;93.40
71297;SHT31;59082;50.658;4.608;2022-10-29T18:22:42;16.84;93.73
71297;SHT31;59082;50.658;4.608;2022-10-29T18:25:09;16.80;92.87
71297;SHT31;59082;50.658;4.608;2022-10-29T18:27:35;16.77;92.45
71297;SHT31;59082;50.658;4.608;2022-10-29T18:30:00;16.75;92.44
71297;SHT31;59082;50.658;4.608;2022-10-29T18:32:26;16.73;93.51
71297;SHT31;59082;50.658;4.608;2022-10-29T18:34:51;16.66;93.41
71297;SHT31;59082;50.658;4.608;2022-10-29T18:37:17;16.63;93.83
71297;SHT31;59082;50.658;4.608;2022-10-29T18:39:42;16.60;93.28
71297;SHT31;59082;50.658;4.608;2022-10-29T18:42:08;16.60;92.59
71297;SHT31;59082;50.658;4.608;2022-10-29T18:44:33;16.65;92.45
71297;SHT31;59082;50.658;4.608;2022-10-29T18:46:59;16.60;92.62
71297;SHT31;59082;50.658;4.608;2022-10-29T18:49:24;16.60;93.47
71297;SHT31;59082;50.658;4.608;2022-10-29T18:51:51;16.59;93.49
71297;SHT31;59082;50.658;4.608;2022-10-29T18:54:17;16.58;93.66
71297;SHT31;59082;50.658;4.608;2022-10-29T18:56:44;16.59;93.78
71297;SHT31;59082;50.658;4.608;2022-10-29T18:59:10;16.55;94.05
71297;SHT31;59082;50.658;4.608;2022-10-29T19:01:37;16.52;94.02
71297;SHT31;59082;50.658;4.608;2022-10-29T19:04:05;16.51;93.88
71297;SHT31;59082;50.658;4.608;2022-10-29T19:06:32;16.55;93.75
71297;SHT31;59082;50.658;4.608;2022-10-29T19:09:03;16.52;93.43
71297;SHT31;59082;50.658;4.608;2022-10-29T19:11:29;16.53;93.61
71297;SHT31;59082;50.658;4.608;2022-10-29T19:14:02;16.51;93.69
71297;SHT31;59082;50.658;4.608;2022-10-29T19:16:29;16.46;93.85
71297;SHT31;59082;50.658;4.608;2022-10-29T19:18:57;16.46;93.59
71297;SHT31;59082;50.658;4.608;2022-10-29T19:21:23;16.45;93.79
71297;SHT31;59082;50.658;4.608;2022-10-29T19:23:57;16.53;93.25
71297;SHT31;59082;50.658;4.608;2022-10-29T19:26:24;16.46;93.70
71297;SHT31;59082;50.658;4.608;2022-10-29T19:28:50;16.44;94.07
71297;SHT31;59082;50.658;4.608;2022-10-29T19:31:18;16.48;93.84
71297;SHT31;59082;50.658;4.608;2022-10-29T19:33:55;16.60;92.91
71297;SHT31;59082;50.658;4.608;2022-10-29T19:36:23;16.73;93.09
71297;SHT31;59082;50.658;4.608;2022-10-29T19:38:49;16.73;92.76
71297;SHT31;59082;50.658;4.608;2022-10-29T19:41:17;16.79;93.10
71297;SHT31;59082;50.658;4.608;2022-10-29T19:43:44;16.67;93.22
71297;SHT31;59082;50.658;4.608;2022-10-29T19:46:12;16.75;93.20
71297;SHT31;59082;50.658;4.608;2022-10-29T19:48:38;16.69;93.16
71297;SHT31;59082;50.658;4.608;2022-10-29T19:51:04;16.63;93.49
71297;SHT31;59082;50.658;4.608;2022-10-29T19:53:30;16.59;93.08
71297;SHT31;59082;50.658;4.608;2022-10-29T19:55:56;16.56;93.60
71297;SHT31;59082;50.658;4.608;2022-10-29T19:58:24;16.60;93.51
71297;SHT31;59082;50.658;4.608;2022-10-29T20:00:50;16.56;93.63
71297;SHT31;59082;50.658;4.608;2022-10-29T20:03:17;16.65;93.67
71297;SHT31;59082;50.658;4.608;2022-10-29T20:05:43;16.59;93.67
71297;SHT31;59082;50.658;4.608;2022-10-29T20:08:09;16.58;93.78
71297;SHT31;59082;50.658;4.608;2022-10-29T20:10:35;16.67;93.79
71297;SHT31;59082;50.658;4.608;2022-10-29T20:13:00;16.62;94.08
71297;SHT31;59082;50.658;4.608;2022-10-29T20:15:26;16.55;94.43
71297;SHT31;59082;50.658;4.608;2022-10-29T20:17:52;16.49;94.67
71297;SHT31;59082;50.658;4.608;2022-10-29T20:20:17;16.44;94.81
71297;SHT31;59082;50.658;4.608;2022-10-29T20:22:43;16.41;94.89
71297;SHT31;59082;50.658;4.608;2022-10-29T20:25:11;16.36;94.99
71297;SHT31;59082;50.658;4.608;2022-10-29T20:27:37;16.33;94.99
71297;SHT31;59082;50.658;4.608;2022-10-29T20:30:04;16.35;94.95
71297;SHT31;59082;50.658;4.608;2022-10-29T20:32:30;16.31;95.28
71297;SHT31;59082;50.658;4.608;2022-10-29T20:34:55;16.29;95.09
71297;SHT31;59082;50.658;4.608;2022-10-29T20:37:21;16.28;95.55
71297;SHT31;59082;50.658;4.608;2022-10-29T20:39:46;16.32;95.18
71297;SHT31;59082;50.658;4.608;2022-10-29T20:42:12;16.25;95.59
71297;SHT31;59082;50.658;4.608;2022-10-29T20:44:38;16.18;96.02
71297;SHT31;59082;50.658;4.608;2022-10-29T20:47:03;16.11;95.84
71297;SHT31;59082;50.658;4.608;2022-10-29T20:49:29;16.05;95.75
71297;SHT31;59082;50.658;4.608;2022-10-29T20:51:54;15.97;96.02
71297;SHT31;59082;50.658;4.608;2022-10-29T20:54:20;16.05;96.49
71297;SHT31;59082;50.658;4.608;2022-10-29T20:56:45;15.98;96.69
71297;SHT31;59082;50.658;4.608;2022-10-29T20:59:11;15.89;96.81
71297;SHT31;59082;50.658;4.608;2022-10-29T21:01:36;15.87;96.93
71297;SHT31;59082;50.658;4.608;2022-10-29T21:04:02;15.86;96.88
71297;SHT31;59082;50.658;4.608;2022-10-29T21:06:27;15.86;96.96
71297;SHT31;59082;50.658;4.608;2022-10-29T21:08:54;15.86;97.01
71297;SHT31;59082;50.658;4.608;2022-10-29T21:11:22;15.90;96.60
71297;SHT31;59082;50.658;4.608;2022-10-29T21:13:48;15.86;96.93
71297;SHT31;59082;50.658;4.608;2022-10-29T21:16:24;15.83;97.20
71297;SHT31;59082;50.658;4.608;2022-10-29T21:18:58;15.86;96.84
71297;SHT31;59082;50.658;4.608;2022-10-29T21:21:27;15.80;97.10
71297;SHT31;59082;50.658;4.608;2022-10-29T21:23:53;15.77;97.52
71297;SHT31;59082;50.658;4.608;2022-10-29T21:26:22;15.71;97.36
71297;SHT31;59082;50.658;4.608;2022-10-29T21:28:49;15.71;97.48
71297;SHT31;59082;50.658;4.608;2022-10-29T21:31:15;15.71;97.18
71297;SHT31;59082;50.658;4.608;2022-10-29T21:33:41;15.70;97.44
71297;SHT31;59082;50.658;4.608;2022-10-29T21:36:06;15.70;97.53
71297;SHT31;59082;50.658;4.608;2022-10-29T21:38:32;15.69;97.70
71297;SHT31;59082;50.658;4.608;2022-10-29T21:40:59;15.67;97.56
71297;SHT31;59082;50.658;4.608;2022-10-29T21:43:27;15.70;97.32
71297;SHT31;59082;50.658;4.608;2022-10-29T21:45:53;15.69;97.25
71297;SHT31;59082;50.658;4.608;2022-10-29T21:48:19;15.69;97.46
71297;SHT31;59082;50.658;4.608;2022-10-29T21:50:45;15.67;97.99
71297;SHT31;59082;50.658;4.608;2022-10-29T21:53:10;15.67;97.82
71297;SHT31;59082;50.658;4.608;2022-10-29T21:55:36;15.66;98.08
71297;SHT31;59082;50.658;4.608;2022-10-29T21:58:02;15.64;97.70
71297;SHT31;59082;50.658;4.608;2022-10-29T22:00:29;15.64;98.17
71297;SHT31;59082;50.658;4.608;2022-10-29T22:02:57;15.64;97.95
71297;SHT31;59082;50.658;4.608;2022-10-29T22:05:23;15.63;98.24
71297;SHT31;59082;50.658;4.608;2022-10-29T22:07:49;15.59;98.30
71297;SHT31;59082;50.658;4.608;2022-10-29T22:10:14;15.62;98.25
71297;SHT31;59082;50.658;4.608;2022-10-29T22:12:40;15.62;98.55
71297;SHT31;59082;50.658;4.608;2022-10-29T22:15:06;15.60;98.40
71297;SHT31;59082;50.658;4.608;2022-10-29T22:17:31;15.63;98.33
71297;SHT31;59082;50.658;4.608;2022-10-29T22:19:57;15.66;98.12
71297;SHT31;59082;50.658;4.608;2022-10-29T22:22:23;15.71;97.85
71297;SHT31;59082;50.658;4.608;2022-10-29T22:24:48;15.71;97.81